sensor_id;sensor_type;location;lat;lon;timestamp;P1;durP1;ratioP1;P2;durP2;ratioP2
66175;SDS011;52977;44.816;20.538;2022-07-23T00:01:00;6.20;;;3.22;;
66175;SDS011;52977;44.816;20.538;2022-07-23T00:03:26;8.55;;;3.60;;
66175;SDS011;52977;44.816;20.538;2022-07-23T00:05:52;8.02;;;3.88;;
66175;SDS011;52977;44.816;20.538;2022-07-23T00:08:18;5.80;;;3.40;;
66175;SDS011;52977;44.816;20.538;2022-07-23T00:10:43;7.97;;;3.25;;
66175;SDS011;52977;44.816;20.538;2022-07-23T00:13:09;10.05;;;3.63;;
66175;SDS011;52977;44.816;20.538;2022-07-23T00:15:35;7.55;;;3.17;;
66175;SDS011;52977;44.816;20.538;2022-07-23T00:18:00;4.97;;;2.60;;
66175;SDS011;52977;44.816;20.538;2022-07-23T00:20:26;6.20;;;3.45;;
66175;SDS011;52977;44.816;20.538;2022-07-23T00:22:53;6.13;;;3.03;;
66175;SDS011;52977;44.816;20.538;2022-07-23T00:25:21;5.07;;;3.00;;
66175;SDS011;52977;44.816;20.538;2022-07-23T00:27:47;6.45;;;3.47;;
66175;SDS011;52977;44.816;20.538;2022-07-23T00:30:14;5.68;;;3.30;;
66175;SDS011;52977;44.816;20.538;2022-07-23T00:32:50;6.32;;;3.20;;
66175;SDS011;52977;44.816;20.538;2022-07-23T00:35:22;6.47;;;3.13;;
66175;SDS011;52977;44.816;20.538;2022-07-23T00:37:49;7.00;;;3.22;;
66175;SDS011;52977;44.816;20.538;2022-07-23T00:40:15;6.28;;;3.60;;
66175;SDS011;52977;44.816;20.538;2022-07-23T00:42:41;5.43;;;3.10;;
66175;SDS011;52977;44.816;20.538;2022-07-23T00:45:07;5.75;;;3.30;;
66175;SDS011;52977;44.816;20.538;2022-07-23T00:47:34;7.30;;;3.38;;
66175;SDS011;52977;44.816;20.538;2022-07-23T00:50:01;6.45;;;3.70;;
66175;SDS011;52977;44.816;20.538;2022-07-23T00:52:29;5.57;;;3.50;;
66175;SDS011;52977;44.816;20.538;2022-07-23T00:54:55;7.88;;;3.90;;
66175;SDS011;52977;44.816;20.538;2022-07-23T00:57:20;8.63;;;3.67;;
66175;SDS011;52977;44.816;20.538;2022-07-23T00:59:46;8.55;;;3.83;;
66175;SDS011;52977;44.816;20.538;2022-07-23T01:02:12;7.18;;;3.58;;
66175;SDS011;52977;44.816;20.538;2022-07-23T01:04:37;5.85;;;3.45;;
66175;SDS011;52977;44.816;20.538;2022-07-23T01:07:03;9.18;;;3.97;;
66175;SDS011;52977;44.816;20.538;2022-07-23T01:09:29;11.38;;;4.10;;
66175;SDS011;52977;44.816;20.538;2022-07-23T01:11:56;9.85;;;3.80;;
66175;SDS011;52977;44.816;20.538;2022-07-23T01:14:22;11.70;;;4.25;;
66175;SDS011;52977;44.816;20.538;2022-07-23T01:16:48;7.13;;;4.05;;
66175;SDS011;52977;44.816;20.538;2022-07-23T01:19:15;13.38;;;4.80;;
66175;SDS011;52977;44.816;20.538;2022-07-23T01:21:42;8.43;;;4.38;;
66175;SDS011;52977;44.816;20.538;2022-07-23T01:24:11;13.47;;;4.60;;
66175;SDS011;52977;44.816;20.538;2022-07-23T01:26:44;8.65;;;4.15;;
66175;SDS011;52977;44.816;20.538;2022-07-23T01:29:10;9.38;;;4.60;;
66175;SDS011;52977;44.816;20.538;2022-07-23T01:31:37;8.75;;;4.55;;
66175;SDS011;52977;44.816;20.538;2022-07-23T01:34:03;9.40;;;4.22;;
66175;SDS011;52977;44.816;20.538;2022-07-23T01:36:30;8.70;;;4.55;;
66175;SDS011;52977;44.816;20.538;2022-07-23T01:38:58;11.60;;;4.68;;
66175;SDS011;52977;44.816;20.538;2022-07-23T01:41:24;13.65;;;5.32;;
66175;SDS011;52977;44.816;20.538;2022-07-23T01:43:50;8.57;;;4.75;;
66175;SDS011;52977;44.816;20.538;2022-07-23T01:46:16;9.60;;;4.60;;
66175;SDS011;52977;44.816;20.538;2022-07-23T01:48:45;12.18;;;5.75;;
66175;SDS011;52977;44.816;20.538;2022-07-23T01:51:37;11.20;;;4.70;;
66175;SDS011;52977;44.816;20.538;2022-07-23T01:54:23;14.60;;;5.13;;
66175;SDS011;52977;44.816;20.538;2022-07-23T01:56:49;10.35;;;4.85;;
66175;SDS011;52977;44.816;20.538;2022-07-23T01:59:15;12.38;;;5.15;;
66175;SDS011;52977;44.816;20.538;2022-07-23T02:01:40;9.20;;;5.35;;
66175;SDS011;52977;44.816;20.538;2022-07-23T02:04:06;10.73;;;5.45;;
66175;SDS011;52977;44.816;20.538;2022-07-23T02:06:32;10.93;;;5.45;;
66175;SDS011;52977;44.816;20.538;2022-07-23T02:08:58;9.93;;;5.32;;
66175;SDS011;52977;44.816;20.538;2022-07-23T02:11:23;9.93;;;5.15;;
66175;SDS011;52977;44.816;20.538;2022-07-23T02:13:49;8.07;;;4.65;;
66175;SDS011;52977;44.816;20.538;2022-07-23T02:16:14;10.88;;;5.03;;
66175;SDS011;52977;44.816;20.538;2022-07-23T02:18:40;14.07;;;5.72;;
66175;SDS011;52977;44.816;20.538;2022-07-23T02:21:05;8.27;;;4.88;;
66175;SDS011;52977;44.816;20.538;2022-07-23T02:23:43;15.02;;;5.55;;
66175;SDS011;52977;44.816;20.538;2022-07-23T02:26:09;10.77;;;5.18;;
66175;SDS011;52977;44.816;20.538;2022-07-23T02:28:35;10.60;;;4.75;;
66175;SDS011;52977;44.816;20.538;2022-07-23T02:31:01;9.07;;;4.70;;
66175;SDS011;52977;44.816;20.538;2022-07-23T02:33:27;10.15;;;5.10;;
66175;SDS011;52977;44.816;20.538;2022-07-23T02:35:53;8.85;;;5.07;;
66175;SDS011;52977;44.816;20.538;2022-07-23T02:38:20;8.00;;;4.43;;
66175;SDS011;52977;44.816;20.538;2022-07-23T02:40:46;9.05;;;4.70;;
66175;SDS011;52977;44.816;20.538;2022-07-23T02:43:12;9.02;;;4.47;;
66175;SDS011;52977;44.816;20.538;2022-07-23T02:45:38;9.93;;;4.70;;
66175;SDS011;52977;44.816;20.538;2022-07-23T02:48:04;8.63;;;4.43;;
66175;SDS011;52977;44.816;20.538;2022-07-23T02:50:30;9.07;;;4.18;;
66175;SDS011;52977;44.816;20.538;2022-07-23T02:53:02;7.70;;;4.20;;
66175;SDS011;52977;44.816;20.538;2022-07-23T02:55:28;7.90;;;4.07;;
66175;SDS011;52977;44.816;20.538;2022-07-23T02:57:53;8.15;;;4.15;;
66175;SDS011;52977;44.816;20.538;2022-07-23T03:00:19;10.48;;;4.47;;
66175;SDS011;52977;44.816;20.538;2022-07-23T03:02:45;8.73;;;4.65;;
66175;SDS011;52977;44.816;20.538;2022-07-23T03:05:10;7.55;;;3.95;;
66175;SDS011;52977;44.816;20.538;2022-07-23T03:07:37;7.32;;;4.03;;
66175;SDS011;52977;44.816;20.538;2022-07-23T03:10:04;10.05;;;3.85;;
66175;SDS011;52977;44.816;20.538;2022-07-23T03:12:29;5.82;;;3.60;;
66175;SDS011;52977;44.816;20.538;2022-07-23T03:14:55;6.95;;;3.67;;
66175;SDS011;52977;44.816;20.538;2022-07-23T03:17:21;7.47;;;3.45;;
66175;SDS011;52977;44.816;20.538;2022-07-23T03:19:46;5.30;;;3.20;;
66175;SDS011;52977;44.816;20.538;2022-07-23T03:22:12;6.30;;;3.20;;
66175;SDS011;52977;44.816;20.538;2022-07-23T03:24:40;7.75;;;3.75;;
66175;SDS011;52977;44.816;20.538;2022-07-23T03:27:24;5.30;;;3.17;;
66175;SDS011;52977;44.816;20.538;2022-07-23T03:29:51;7.50;;;3.80;;
66175;SDS011;52977;44.816;20.538;2022-07-23T03:32:19;5.50;;;2.88;;
66175;SDS011;52977;44.816;20.538;2022-07-23T03:34:45;6.53;;;3.13;;
66175;SDS011;52977;44.816;20.538;2022-07-23T03:37:11;7.40;;;3.25;;
66175;SDS011;52977;44.816;20.538;2022-07-23T03:39:37;8.20;;;3.58;;
66175;SDS011;52977;44.816;20.538;2022-07-23T03:42:04;5.18;;;3.10;;
66175;SDS011;52977;44.816;20.538;2022-07-23T03:44:30;4.28;;;2.80;;
66175;SDS011;52977;44.816;20.538;2022-07-23T03:46:55;4.93;;;3.05;;
66175;SDS011;52977;44.816;20.538;2022-07-23T03:49:21;6.85;;;3.30;;
66175;SDS011;52977;44.816;20.538;2022-07-23T03:51:48;7.72;;;3.15;;
66175;SDS011;52977;44.816;20.538;2022-07-23T03:54:13;5.53;;;2.72;;
66175;SDS011;52977;44.816;20.538;2022-07-23T03:56:39;8.23;;;3.60;;
66175;SDS011;52977;44.816;20.538;2022-07-23T03:59:05;8.50;;;3.20;;
66175;SDS011;52977;44.816;20.538;2022-07-23T04:01:30;4.50;;;2.92;;
66175;SDS011;52977;44.816;20.538;2022-07-23T04:03:57;5.75;;;3.35;;
66175;SDS011;52977;44.816;20.538;2022-07-23T04:06:23;6.50;;;3.47;;
66175;SDS011;52977;44.816;20.538;2022-07-23T04:08:50;6.55;;;3.25;;
66175;SDS011;52977;44.816;20.538;2022-07-23T04:11:16;7.30;;;3.40;;
66175;SDS011;52977;44.816;20.538;2022-07-23T04:13:42;5.13;;;3.33;;
66175;SDS011;52977;44.816;20.538;2022-07-23T04:16:08;4.95;;;3.25;;
66175;SDS011;52977;44.816;20.538;2022-07-23T04:18:33;7.18;;;3.65;;
66175;SDS011;52977;44.816;20.538;2022-07-23T04:21:11;7.85;;;3.65;;
66175;SDS011;52977;44.816;20.538;2022-07-23T04:23:40;7.07;;;3.45;;
66175;SDS011;52977;44.816;20.538;2022-07-23T04:26:06;6.13;;;3.15;;
66175;SDS011;52977;44.816;20.538;2022-07-23T04:28:32;7.72;;;3.60;;
66175;SDS011;52977;44.816;20.538;2022-07-23T04:31:01;6.17;;;3.30;;
66175;SDS011;52977;44.816;20.538;2022-07-23T04:33:28;7.40;;;3.35;;
66175;SDS011;52977;44.816;20.538;2022-07-23T04:35:56;6.18;;;3.15;;
66175;SDS011;52977;44.816;20.538;2022-07-23T04:38:22;10.73;;;3.70;;
66175;SDS011;52977;44.816;20.538;2022-07-23T04:40:50;6.38;;;3.70;;
66175;SDS011;52977;44.816;20.538;2022-07-23T04:43:16;7.00;;;4.10;;
66175;SDS011;52977;44.816;20.538;2022-07-23T04:45:45;6.90;;;3.55;;
66175;SDS011;52977;44.816;20.538;2022-07-23T04:48:11;8.23;;;3.92;;
66175;SDS011;52977;44.816;20.538;2022-07-23T04:50:37;8.25;;;4.10;;
66175;SDS011;52977;44.816;20.538;2022-07-23T04:53:04;8.13;;;4.30;;
66175;SDS011;52977;44.816;20.538;2022-07-23T04:55:30;7.63;;;3.95;;
66175;SDS011;52977;44.816;20.538;2022-07-23T04:57:57;9.77;;;4.47;;
66175;SDS011;52977;44.816;20.538;2022-07-23T05:00:22;9.73;;;4.28;;
66175;SDS011;52977;44.816;20.538;2022-07-23T05:02:48;8.48;;;4.15;;
66175;SDS011;52977;44.816;20.538;2022-07-23T05:05:15;7.10;;;4.28;;
66175;SDS011;52977;44.816;20.538;2022-07-23T05:07:43;10.50;;;4.80;;
66175;SDS011;52977;44.816;20.538;2022-07-23T05:10:09;13.23;;;5.82;;
66175;SDS011;52977;44.816;20.538;2022-07-23T05:12:34;11.75;;;5.72;;
66175;SDS011;52977;44.816;20.538;2022-07-23T05:15:00;11.57;;;6.22;;
66175;SDS011;52977;44.816;20.538;2022-07-23T05:17:26;15.02;;;6.10;;
66175;SDS011;52977;44.816;20.538;2022-07-23T05:19:52;10.05;;;5.72;;
66175;SDS011;52977;44.816;20.538;2022-07-23T05:22:18;10.30;;;5.07;;
66175;SDS011;52977;44.816;20.538;2022-07-23T05:24:43;12.40;;;5.97;;
66175;SDS011;52977;44.816;20.538;2022-07-23T05:27:10;14.60;;;7.40;;
66175;SDS011;52977;44.816;20.538;2022-07-23T05:29:36;15.50;;;6.47;;
66175;SDS011;52977;44.816;20.538;2022-07-23T05:32:02;14.60;;;6.78;;
66175;SDS011;52977;44.816;20.538;2022-07-23T05:34:29;15.05;;;6.82;;
66175;SDS011;52977;44.816;20.538;2022-07-23T05:36:56;9.48;;;6.10;;
66175;SDS011;52977;44.816;20.538;2022-07-23T05:39:22;13.32;;;5.90;;
66175;SDS011;52977;44.816;20.538;2022-07-23T05:41:47;15.90;;;7.78;;
66175;SDS011;52977;44.816;20.538;2022-07-23T05:44:13;15.27;;;7.43;;
66175;SDS011;52977;44.816;20.538;2022-07-23T05:46:42;13.55;;;6.88;;
66175;SDS011;52977;44.816;20.538;2022-07-23T05:49:12;15.32;;;7.05;;
66175;SDS011;52977;44.816;20.538;2022-07-23T05:51:56;11.77;;;7.45;;
66175;SDS011;52977;44.816;20.538;2022-07-23T05:54:35;15.63;;;7.32;;
66175;SDS011;52977;44.816;20.538;2022-07-23T05:57:01;14.98;;;7.35;;
66175;SDS011;52977;44.816;20.538;2022-07-23T05:59:28;20.10;;;8.43;;
66175;SDS011;52977;44.816;20.538;2022-07-23T06:01:54;14.68;;;7.47;;
66175;SDS011;52977;44.816;20.538;2022-07-23T06:04:19;15.00;;;8.20;;
66175;SDS011;52977;44.816;20.538;2022-07-23T06:06:59;14.98;;;9.05;;
66175;SDS011;52977;44.816;20.538;2022-07-23T06:09:24;17.80;;;8.07;;
66175;SDS011;52977;44.816;20.538;2022-07-23T06:11:53;15.52;;;8.95;;
66175;SDS011;52977;44.816;20.538;2022-07-23T06:14:21;19.00;;;8.43;;
66175;SDS011;52977;44.816;20.538;2022-07-23T06:19:17;15.07;;;8.07;;
66175;SDS011;52977;44.816;20.538;2022-07-23T06:21:43;16.67;;;9.38;;
66175;SDS011;52977;44.816;20.538;2022-07-23T06:24:10;18.15;;;8.57;;
66175;SDS011;52977;44.816;20.538;2022-07-23T06:26:35;21.73;;;9.27;;
66175;SDS011;52977;44.816;20.538;2022-07-23T06:29:01;15.93;;;8.27;;
66175;SDS011;52977;44.816;20.538;2022-07-23T06:31:27;18.08;;;7.60;;
66175;SDS011;52977;44.816;20.538;2022-07-23T06:33:52;17.25;;;8.27;;
66175;SDS011;52977;44.816;20.538;2022-07-23T06:36:18;17.45;;;7.90;;
66175;SDS011;52977;44.816;20.538;2022-07-23T06:38:43;16.13;;;7.72;;
66175;SDS011;52977;44.816;20.538;2022-07-23T06:41:09;15.73;;;7.80;;
66175;SDS011;52977;44.816;20.538;2022-07-23T06:43:35;16.65;;;7.57;;
66175;SDS011;52977;44.816;20.538;2022-07-23T06:46:00;22.38;;;7.22;;
66175;SDS011;52977;44.816;20.538;2022-07-23T06:48:26;13.52;;;7.07;;
66175;SDS011;52977;44.816;20.538;2022-07-23T06:50:53;14.27;;;6.53;;
66175;SDS011;52977;44.816;20.538;2022-07-23T06:53:23;16.67;;;6.43;;
66175;SDS011;52977;44.816;20.538;2022-07-23T06:55:48;13.80;;;6.18;;
66175;SDS011;52977;44.816;20.538;2022-07-23T06:58:14;12.07;;;6.55;;
66175;SDS011;52977;44.816;20.538;2022-07-23T07:00:40;16.52;;;6.93;;
66175;SDS011;52977;44.816;20.538;2022-07-23T07:03:06;14.90;;;7.40;;
66175;SDS011;52977;44.816;20.538;2022-07-23T07:05:33;11.85;;;6.78;;
66175;SDS011;52977;44.816;20.538;2022-07-23T07:07:58;17.85;;;8.77;;
66175;SDS011;52977;44.816;20.538;2022-07-23T07:10:24;18.05;;;8.55;;
66175;SDS011;52977;44.816;20.538;2022-07-23T07:12:49;20.88;;;11.90;;
66175;SDS011;52977;44.816;20.538;2022-07-23T07:15:15;16.38;;;8.50;;
66175;SDS011;52977;44.816;20.538;2022-07-23T07:17:41;13.57;;;7.32;;
66175;SDS011;52977;44.816;20.538;2022-07-23T07:20:07;20.63;;;8.25;;
66175;SDS011;52977;44.816;20.538;2022-07-23T07:22:33;17.00;;;8.13;;
66175;SDS011;52977;44.816;20.538;2022-07-23T07:24:59;14.43;;;7.43;;
66175;SDS011;52977;44.816;20.538;2022-07-23T07:27:25;18.10;;;9.65;;
66175;SDS011;52977;44.816;20.538;2022-07-23T07:29:50;19.17;;;11.68;;
66175;SDS011;52977;44.816;20.538;2022-07-23T07:32:16;12.93;;;6.30;;
66175;SDS011;52977;44.816;20.538;2022-07-23T07:34:42;14.18;;;6.18;;
66175;SDS011;52977;44.816;20.538;2022-07-23T07:37:07;12.30;;;6.07;;
66175;SDS011;52977;44.816;20.538;2022-07-23T07:39:33;15.43;;;6.63;;
66175;SDS011;52977;44.816;20.538;2022-07-23T07:41:58;12.98;;;6.50;;
66175;SDS011;52977;44.816;20.538;2022-07-23T07:44:24;7.82;;;5.05;;
66175;SDS011;52977;44.816;20.538;2022-07-23T07:46:50;11.43;;;6.30;;
66175;SDS011;52977;44.816;20.538;2022-07-23T07:49:16;13.63;;;5.75;;
66175;SDS011;52977;44.816;20.538;2022-07-23T07:51:44;13.70;;;6.35;;
66175;SDS011;52977;44.816;20.538;2022-07-23T07:54:10;14.32;;;5.85;;
66175;SDS011;52977;44.816;20.538;2022-07-23T07:56:39;11.55;;;5.95;;
66175;SDS011;52977;44.816;20.538;2022-07-23T07:59:04;11.93;;;6.22;;
66175;SDS011;52977;44.816;20.538;2022-07-23T08:01:30;10.27;;;5.70;;
66175;SDS011;52977;44.816;20.538;2022-07-23T08:03:57;11.88;;;5.65;;
66175;SDS011;52977;44.816;20.538;2022-07-23T08:06:25;9.65;;;5.82;;
66175;SDS011;52977;44.816;20.538;2022-07-23T08:08:51;10.57;;;6.60;;
66175;SDS011;52977;44.816;20.538;2022-07-23T08:11:17;12.25;;;7.05;;
66175;SDS011;52977;44.816;20.538;2022-07-23T08:13:42;14.95;;;6.93;;
66175;SDS011;52977;44.816;20.538;2022-07-23T08:16:10;15.07;;;7.10;;
66175;SDS011;52977;44.816;20.538;2022-07-23T08:18:36;14.75;;;6.97;;
66175;SDS011;52977;44.816;20.538;2022-07-23T08:21:02;12.85;;;6.55;;
66175;SDS011;52977;44.816;20.538;2022-07-23T08:23:29;11.10;;;5.95;;
66175;SDS011;52977;44.816;20.538;2022-07-23T08:25:55;14.25;;;6.60;;
66175;SDS011;52977;44.816;20.538;2022-07-23T08:28:22;15.80;;;7.15;;
66175;SDS011;52977;44.816;20.538;2022-07-23T08:30:48;14.82;;;8.18;;
66175;SDS011;52977;44.816;20.538;2022-07-23T08:33:17;18.73;;;6.45;;
66175;SDS011;52977;44.816;20.538;2022-07-23T08:35:50;12.75;;;6.00;;
66175;SDS011;52977;44.816;20.538;2022-07-23T08:38:21;14.27;;;7.50;;
66175;SDS011;52977;44.816;20.538;2022-07-23T08:40:48;12.52;;;6.55;;
66175;SDS011;52977;44.816;20.538;2022-07-23T08:43:19;11.75;;;6.75;;
66175;SDS011;52977;44.816;20.538;2022-07-23T08:45:48;12.05;;;6.93;;
66175;SDS011;52977;44.816;20.538;2022-07-23T08:48:21;15.90;;;7.35;;
66175;SDS011;52977;44.816;20.538;2022-07-23T08:50:51;16.60;;;7.20;;
66175;SDS011;52977;44.816;20.538;2022-07-23T08:53:20;15.55;;;8.07;;
66175;SDS011;52977;44.816;20.538;2022-07-23T08:55:47;16.70;;;7.00;;
66175;SDS011;52977;44.816;20.538;2022-07-23T08:58:14;14.23;;;6.80;;
66175;SDS011;52977;44.816;20.538;2022-07-23T09:00:40;12.75;;;8.18;;
66175;SDS011;52977;44.816;20.538;2022-07-23T09:03:06;15.55;;;6.95;;
66175;SDS011;52977;44.816;20.538;2022-07-23T09:05:32;16.33;;;7.25;;
66175;SDS011;52977;44.816;20.538;2022-07-23T09:08:11;16.27;;;7.57;;
66175;SDS011;52977;44.816;20.538;2022-07-23T09:13:24;17.67;;;8.40;;
66175;SDS011;52977;44.816;20.538;2022-07-23T09:15:53;16.77;;;7.32;;
66175;SDS011;52977;44.816;20.538;2022-07-23T09:18:19;17.48;;;7.47;;
66175;SDS011;52977;44.816;20.538;2022-07-23T09:21:06;17.02;;;8.18;;
66175;SDS011;52977;44.816;20.538;2022-07-23T09:23:39;15.98;;;7.80;;
66175;SDS011;52977;44.816;20.538;2022-07-23T09:26:42;16.50;;;6.85;;
66175;SDS011;52977;44.816;20.538;2022-07-23T09:31:42;16.73;;;6.47;;
66175;SDS011;52977;44.816;20.538;2022-07-23T09:34:12;17.83;;;7.25;;
66175;SDS011;52977;44.816;20.538;2022-07-23T09:36:42;11.10;;;6.70;;
66175;SDS011;52977;44.816;20.538;2022-07-23T09:39:08;15.02;;;7.28;;
66175;SDS011;52977;44.816;20.538;2022-07-23T09:41:40;10.23;;;6.18;;
66175;SDS011;52977;44.816;20.538;2022-07-23T09:44:11;14.02;;;5.65;;
66175;SDS011;52977;44.816;20.538;2022-07-23T09:46:38;12.35;;;5.45;;
66175;SDS011;52977;44.816;20.538;2022-07-23T09:51:46;10.02;;;5.57;;
66175;SDS011;52977;44.816;20.538;2022-07-23T09:54:20;12.65;;;5.38;;
66175;SDS011;52977;44.816;20.538;2022-07-23T09:56:50;11.10;;;5.28;;
66175;SDS011;52977;44.816;20.538;2022-07-23T09:59:24;7.97;;;5.00;;
66175;SDS011;52977;44.816;20.538;2022-07-23T10:01:53;12.15;;;4.97;;
66175;SDS011;52977;44.816;20.538;2022-07-23T10:04:22;12.73;;;4.57;;
66175;SDS011;52977;44.816;20.538;2022-07-23T10:06:55;9.10;;;4.45;;
66175;SDS011;52977;44.816;20.538;2022-07-23T10:09:52;7.80;;;4.57;;
66175;SDS011;52977;44.816;20.538;2022-07-23T10:12:43;7.87;;;4.70;;
66175;SDS011;52977;44.816;20.538;2022-07-23T10:15:13;8.65;;;4.30;;
66175;SDS011;52977;44.816;20.538;2022-07-23T10:17:39;10.55;;;4.63;;
66175;SDS011;52977;44.816;20.538;2022-07-23T10:20:05;12.80;;;4.45;;
66175;SDS011;52977;44.816;20.538;2022-07-23T10:22:46;8.43;;;4.22;;
66175;SDS011;52977;44.816;20.538;2022-07-23T10:25:40;8.93;;;4.20;;
66175;SDS011;52977;44.816;20.538;2022-07-23T10:28:29;9.18;;;4.47;;
66175;SDS011;52977;44.816;20.538;2022-07-23T10:33:45;8.10;;;4.13;;
66175;SDS011;52977;44.816;20.538;2022-07-23T10:39:22;9.38;;;4.22;;
66175;SDS011;52977;44.816;20.538;2022-07-23T10:41:50;7.18;;;4.18;;
66175;SDS011;52977;44.816;20.538;2022-07-23T10:44:19;8.15;;;3.70;;
66175;SDS011;52977;44.816;20.538;2022-07-23T10:47:01;6.78;;;4.15;;
66175;SDS011;52977;44.816;20.538;2022-07-23T10:49:47;7.95;;;4.00;;
66175;SDS011;52977;44.816;20.538;2022-07-23T10:54:39;10.18;;;4.10;;
66175;SDS011;52977;44.816;20.538;2022-07-23T10:57:05;8.52;;;4.07;;
66175;SDS011;52977;44.816;20.538;2022-07-23T11:02:46;10.05;;;4.07;;
66175;SDS011;52977;44.816;20.538;2022-07-23T11:05:16;7.72;;;4.15;;
66175;SDS011;52977;44.816;20.538;2022-07-23T11:26:53;8.38;;;4.85;;
66175;SDS011;52977;44.816;20.538;2022-07-23T11:34:44;8.02;;;3.90;;
66175;SDS011;52977;44.816;20.538;2022-07-23T11:40:00;9.68;;;4.43;;
66175;SDS011;52977;44.816;20.538;2022-07-23T11:42:29;10.48;;;4.75;;
66175;SDS011;52977;44.816;20.538;2022-07-23T11:44:54;12.10;;;4.28;;
66175;SDS011;52977;44.816;20.538;2022-07-23T11:47:24;6.50;;;3.72;;
66175;SDS011;52977;44.816;20.538;2022-07-23T11:52:23;9.45;;;4.13;;
66175;SDS011;52977;44.816;20.538;2022-07-23T11:54:59;6.90;;;3.97;;
66175;SDS011;52977;44.816;20.538;2022-07-23T11:57:31;6.38;;;4.07;;
66175;SDS011;52977;44.816;20.538;2022-07-23T12:00:09;9.00;;;4.60;;
66175;SDS011;52977;44.816;20.538;2022-07-23T12:02:40;9.40;;;4.82;;
66175;SDS011;52977;44.816;20.538;2022-07-23T12:05:08;10.48;;;4.80;;
66175;SDS011;52977;44.816;20.538;2022-07-23T12:07:38;7.60;;;4.05;;
66175;SDS011;52977;44.816;20.538;2022-07-23T12:10:14;9.02;;;4.20;;
66175;SDS011;52977;44.816;20.538;2022-07-23T12:13:03;8.70;;;4.60;;
66175;SDS011;52977;44.816;20.538;2022-07-23T12:15:30;10.50;;;4.28;;
66175;SDS011;52977;44.816;20.538;2022-07-23T12:18:07;8.13;;;4.35;;
66175;SDS011;52977;44.816;20.538;2022-07-23T12:20:44;6.60;;;3.97;;
66175;SDS011;52977;44.816;20.538;2022-07-23T12:23:14;8.73;;;4.53;;
66175;SDS011;52977;44.816;20.538;2022-07-23T12:25:43;9.57;;;4.73;;
66175;SDS011;52977;44.816;20.538;2022-07-23T12:28:11;8.02;;;3.90;;
66175;SDS011;52977;44.816;20.538;2022-07-23T12:30:41;6.18;;;3.95;;
66175;SDS011;52977;44.816;20.538;2022-07-23T12:33:09;6.85;;;3.85;;
66175;SDS011;52977;44.816;20.538;2022-07-23T12:35:37;9.02;;;4.47;;
66175;SDS011;52977;44.816;20.538;2022-07-23T12:38:07;7.30;;;4.50;;
66175;SDS011;52977;44.816;20.538;2022-07-23T12:40:35;8.68;;;4.03;;
66175;SDS011;52977;44.816;20.538;2022-07-23T12:43:19;9.50;;;5.40;;
66175;SDS011;52977;44.816;20.538;2022-07-23T12:48:23;10.57;;;4.97;;
66175;SDS011;52977;44.816;20.538;2022-07-23T12:51:06;6.60;;;4.78;;
66175;SDS011;52977;44.816;20.538;2022-07-23T12:53:37;10.40;;;5.30;;
66175;SDS011;52977;44.816;20.538;2022-07-23T12:56:08;10.00;;;5.45;;
66175;SDS011;52977;44.816;20.538;2022-07-23T12:58:51;7.63;;;5.13;;
66175;SDS011;52977;44.816;20.538;2022-07-23T13:04:07;11.43;;;5.45;;
66175;SDS011;52977;44.816;20.538;2022-07-23T13:06:42;10.75;;;5.95;;
66175;SDS011;52977;44.816;20.538;2022-07-23T13:09:11;9.35;;;5.70;;
66175;SDS011;52977;44.816;20.538;2022-07-23T13:11:38;11.70;;;5.72;;
66175;SDS011;52977;44.816;20.538;2022-07-23T13:14:05;10.27;;;6.07;;
66175;SDS011;52977;44.816;20.538;2022-07-23T13:16:31;10.02;;;5.25;;
66175;SDS011;52977;44.816;20.538;2022-07-23T13:18:58;9.05;;;6.07;;
66175;SDS011;52977;44.816;20.538;2022-07-23T13:21:26;8.60;;;5.55;;
66175;SDS011;52977;44.816;20.538;2022-07-23T13:23:52;9.75;;;5.82;;
66175;SDS011;52977;44.816;20.538;2022-07-23T13:26:18;11.13;;;6.22;;
66175;SDS011;52977;44.816;20.538;2022-07-23T13:28:44;8.95;;;5.95;;
66175;SDS011;52977;44.816;20.538;2022-07-23T13:31:10;9.55;;;6.05;;
66175;SDS011;52977;44.816;20.538;2022-07-23T13:33:35;11.15;;;6.35;;
66175;SDS011;52977;44.816;20.538;2022-07-23T13:36:01;10.10;;;6.72;;
66175;SDS011;52977;44.816;20.538;2022-07-23T13:38:27;12.55;;;5.90;;
66175;SDS011;52977;44.816;20.538;2022-07-23T13:40:53;9.38;;;6.60;;
66175;SDS011;52977;44.816;20.538;2022-07-23T13:43:19;7.97;;;5.38;;
66175;SDS011;52977;44.816;20.538;2022-07-23T13:45:46;13.35;;;6.07;;
66175;SDS011;52977;44.816;20.538;2022-07-23T13:48:12;13.18;;;6.53;;
66175;SDS011;52977;44.816;20.538;2022-07-23T13:50:39;8.75;;;6.53;;
66175;SDS011;52977;44.816;20.538;2022-07-23T13:53:08;10.55;;;5.97;;
66175;SDS011;52977;44.816;20.538;2022-07-23T13:55:45;9.82;;;6.53;;
66175;SDS011;52977;44.816;20.538;2022-07-23T13:58:11;8.85;;;6.65;;
66175;SDS011;52977;44.816;20.538;2022-07-23T14:00:39;10.18;;;6.43;;
66175;SDS011;52977;44.816;20.538;2022-07-23T14:03:10;11.57;;;6.55;;
66175;SDS011;52977;44.816;20.538;2022-07-23T14:05:35;10.85;;;7.60;;
66175;SDS011;52977;44.816;20.538;2022-07-23T14:08:02;8.98;;;6.00;;
66175;SDS011;52977;44.816;20.538;2022-07-23T14:10:28;12.57;;;6.22;;
66175;SDS011;52977;44.816;20.538;2022-07-23T14:12:54;8.50;;;6.15;;
66175;SDS011;52977;44.816;20.538;2022-07-23T14:17:52;8.10;;;6.07;;
66175;SDS011;52977;44.816;20.538;2022-07-23T14:20:18;9.00;;;6.38;;
66175;SDS011;52977;44.816;20.538;2022-07-23T14:22:45;10.38;;;6.95;;
66175;SDS011;52977;44.816;20.538;2022-07-23T14:25:11;9.80;;;6.50;;
66175;SDS011;52977;44.816;20.538;2022-07-23T14:27:37;9.23;;;6.25;;
66175;SDS011;52977;44.816;20.538;2022-07-23T14:30:05;9.60;;;7.05;;
66175;SDS011;52977;44.816;20.538;2022-07-23T14:32:32;9.73;;;6.40;;
66175;SDS011;52977;44.816;20.538;2022-07-23T14:34:58;10.30;;;6.22;;
66175;SDS011;52977;44.816;20.538;2022-07-23T14:37:24;14.05;;;6.63;;
66175;SDS011;52977;44.816;20.538;2022-07-23T14:39:50;11.55;;;6.88;;
66175;SDS011;52977;44.816;20.538;2022-07-23T14:42:17;8.98;;;6.35;;
66175;SDS011;52977;44.816;20.538;2022-07-23T14:44:43;12.65;;;6.65;;
66175;SDS011;52977;44.816;20.538;2022-07-23T14:47:10;12.30;;;7.22;;
66175;SDS011;52977;44.816;20.538;2022-07-23T14:49:40;11.60;;;7.07;;
66175;SDS011;52977;44.816;20.538;2022-07-23T14:52:06;12.35;;;6.30;;
66175;SDS011;52977;44.816;20.538;2022-07-23T14:54:32;10.85;;;5.93;;
66175;SDS011;52977;44.816;20.538;2022-07-23T14:56:59;10.25;;;6.25;;
66175;SDS011;52977;44.816;20.538;2022-07-23T14:59:26;8.45;;;6.25;;
66175;SDS011;52977;44.816;20.538;2022-07-23T15:04:21;14.52;;;6.72;;
66175;SDS011;52977;44.816;20.538;2022-07-23T15:06:47;12.25;;;6.53;;
66175;SDS011;52977;44.816;20.538;2022-07-23T15:09:13;16.00;;;6.97;;
66175;SDS011;52977;44.816;20.538;2022-07-23T15:11:40;12.40;;;7.25;;
66175;SDS011;52977;44.816;20.538;2022-07-23T15:14:08;10.43;;;6.43;;
66175;SDS011;52977;44.816;20.538;2022-07-23T15:16:35;13.05;;;7.03;;
66175;SDS011;52977;44.816;20.538;2022-07-23T15:19:01;8.77;;;5.80;;
66175;SDS011;52977;44.816;20.538;2022-07-23T15:21:28;10.88;;;6.82;;
66175;SDS011;52977;44.816;20.538;2022-07-23T15:23:54;10.48;;;6.75;;
66175;SDS011;52977;44.816;20.538;2022-07-23T15:26:29;9.57;;;6.32;;
66175;SDS011;52977;44.816;20.538;2022-07-23T15:28:58;11.10;;;7.00;;
66175;SDS011;52977;44.816;20.538;2022-07-23T15:31:24;13.32;;;6.35;;
66175;SDS011;52977;44.816;20.538;2022-07-23T15:33:50;9.05;;;6.35;;
66175;SDS011;52977;44.816;20.538;2022-07-23T15:36:19;13.82;;;6.82;;